sensor_id;sensor_type;location;lat;lon;timestamp;temperature;humidity
83120;SHT31;73001;51.784;4.660;2024-01-15T00:01:26;4.33;81.01
83120;SHT31;73001;51.784;4.660;2024-01-15T00:03:52;4.23;81.21
83120;SHT31;73001;51.784;4.660;2024-01-15T00:06:17;4.23;81.45
83120;SHT31;73001;51.784;4.660;2024-01-15T00:08:43;4.16;81.59
83120;SHT31;73001;51.784;4.660;2024-01-15T00:11:08;4.13;81.51
83120;SHT31;73001;51.784;4.660;2024-01-15T00:13:34;4.15;81.41
83120;SHT31;73001;51.784;4.660;2024-01-15T00:15:59;4.12;81.84
83120;SHT31;73001;51.784;4.660;2024-01-15T00:18:25;4.13;81.71
83120;SHT31;73001;51.784;4.660;2024-01-15T00:20:50;4.13;81.90
83120;SHT31;73001;51.784;4.660;2024-01-15T00:23:16;4.15;81.75
83120;SHT31;73001;51.784;4.660;2024-01-15T00:25:41;4.17;81.75
83120;SHT31;73001;51.784;4.660;2024-01-15T00:28:07;4.19;81.79
83120;SHT31;73001;51.784;4.660;2024-01-15T00:30:32;4.16;81.49
83120;SHT31;73001;51.784;4.660;2024-01-15T00:32:58;4.19;81.48
83120;SHT31;73001;51.784;4.660;2024-01-15T00:35:23;4.22;81.49
83120;SHT31;73001;51.784;4.660;2024-01-15T00:37:49;4.13;80.32
83120;SHT31;73001;51.784;4.660;2024-01-15T00:40:14;4.09;80.14
83120;SHT31;73001;51.784;4.660;2024-01-15T00:42:40;4.01;79.84
83120;SHT31;73001;51.784;4.660;2024-01-15T00:45:06;4.01;80.35
83120;SHT31;73001;51.784;4.660;2024-01-15T00:47:33;3.91;80.48
83120;SHT31;73001;51.784;4.660;2024-01-15T00:49:59;3.89;80.19
83120;SHT31;73001;51.784;4.660;2024-01-15T00:52:25;3.92;80.96
83120;SHT31;73001;51.784;4.660;2024-01-15T00:54:50;3.91;80.95
83120;SHT31;73001;51.784;4.660;2024-01-15T00:57:16;3.89;81.14
83120;SHT31;73001;51.784;4.660;2024-01-15T00:59:41;3.94;81.44
83120;SHT31;73001;51.784;4.660;2024-01-15T01:02:07;3.95;81.36
83120;SHT31;73001;51.784;4.660;2024-01-15T01:04:33;3.99;81.43
83120;SHT31;73001;51.784;4.660;2024-01-15T01:06:58;4.02;81.43
83120;SHT31;73001;51.784;4.660;2024-01-15T01:09:24;4.05;81.67
83120;SHT31;73001;51.784;4.660;2024-01-15T01:11:49;4.07;81.67
83120;SHT31;73001;51.784;4.660;2024-01-15T01:14:15;4.17;81.73
83120;SHT31;73001;51.784;4.660;2024-01-15T01:16:40;4.15;81.50
83120;SHT31;73001;51.784;4.660;2024-01-15T01:19:06;4.13;81.31
83120;SHT31;73001;51.784;4.660;2024-01-15T01:21:33;4.10;81.17
83120;SHT31;73001;51.784;4.660;2024-01-15T01:23:58;4.09;81.24
83120;SHT31;73001;51.784;4.660;2024-01-15T01:26:23;4.09;81.26
83120;SHT31;73001;51.784;4.660;2024-01-15T01:28:49;3.98;80.78
83120;SHT31;73001;51.784;4.660;2024-01-15T01:31:15;3.92;81.05
83120;SHT31;73001;51.784;4.660;2024-01-15T01:33:42;3.94;81.13
83120;SHT31;73001;51.784;4.660;2024-01-15T01:36:10;3.91;81.14
83120;SHT31;73001;51.784;4.660;2024-01-15T01:38:37;3.91;80.97
83120;SHT31;73001;51.784;4.660;2024-01-15T01:41:02;3.91;81.09
83120;SHT31;73001;51.784;4.660;2024-01-15T01:43:28;3.84;80.93
83120;SHT31;73001;51.784;4.660;2024-01-15T01:45:57;3.82;81.04
83120;SHT31;73001;51.784;4.660;2024-01-15T01:48:25;3.77;80.61
83120;SHT31;73001;51.784;4.660;2024-01-15T01:50:53;3.72;80.46
83120;SHT31;73001;51.784;4.660;2024-01-15T01:53:21;3.71;80.55
83120;SHT31;73001;51.784;4.660;2024-01-15T01:55:47;3.68;80.51
83120;SHT31;73001;51.784;4.660;2024-01-15T01:58:14;3.65;80.51
83120;SHT31;73001;51.784;4.660;2024-01-15T02:00:40;3.68;81.20
83120;SHT31;73001;51.784;4.660;2024-01-15T02:03:05;3.71;81.41
83120;SHT31;73001;51.784;4.660;2024-01-15T02:05:31;3.78;81.50
83120;SHT31;73001;51.784;4.660;2024-01-15T02:07:57;3.79;81.97
83120;SHT31;73001;51.784;4.660;2024-01-15T02:10:22;3.77;82.13
83120;SHT31;73001;51.784;4.660;2024-01-15T02:12:48;3.79;81.98
83120;SHT31;73001;51.784;4.660;2024-01-15T02:15:14;3.86;81.49
83120;SHT31;73001;51.784;4.660;2024-01-15T02:18:03;3.94;81.43
83120;SHT31;73001;51.784;4.660;2024-01-15T02:20:29;3.96;81.01
83120;SHT31;73001;51.784;4.660;2024-01-15T02:23:08;3.95;80.43
83120;SHT31;73001;51.784;4.660;2024-01-15T02:25:39;3.95;80.80
83120;SHT31;73001;51.784;4.660;2024-01-15T02:28:06;3.98;80.83
83120;SHT31;73001;51.784;4.660;2024-01-15T02:30:37;3.92;80.96
83120;SHT31;73001;51.784;4.660;2024-01-15T02:33:03;3.94;81.08
83120;SHT31;73001;51.784;4.660;2024-01-15T02:35:29;3.88;81.06
83120;SHT31;73001;51.784;4.660;2024-01-15T02:37:54;3.88;81.02
83120;SHT31;73001;51.784;4.660;2024-01-15T02:40:20;3.88;81.13
83120;SHT31;73001;51.784;4.660;2024-01-15T02:42:45;3.88;81.16
83120;SHT31;73001;51.784;4.660;2024-01-15T02:45:11;3.84;81.15
83120;SHT31;73001;51.784;4.660;2024-01-15T02:47:36;3.82;81.05
83120;SHT31;73001;51.784;4.660;2024-01-15T02:50:02;3.72;80.72
83120;SHT31;73001;51.784;4.660;2024-01-15T02:52:27;3.67;81.00
83120;SHT31;73001;51.784;4.660;2024-01-15T02:54:53;3.71;81.20
83120;SHT31;73001;51.784;4.660;2024-01-15T02:57:18;3.71;81.39
83120;SHT31;73001;51.784;4.660;2024-01-15T02:59:44;3.63;81.36
83120;SHT31;73001;51.784;4.660;2024-01-15T03:02:09;3.67;81.63
83120;SHT31;73001;51.784;4.660;2024-01-15T03:04:35;3.71;81.83
83120;SHT31;73001;51.784;4.660;2024-01-15T03:07:00;3.75;82.06
83120;SHT31;73001;51.784;4.660;2024-01-15T03:09:26;3.81;82.10
83120;SHT31;73001;51.784;4.660;2024-01-15T03:11:51;3.84;82.05
83120;SHT31;73001;51.784;4.660;2024-01-15T03:14:17;3.88;82.12
83120;SHT31;73001;51.784;4.660;2024-01-15T03:16:42;3.94;82.11
83120;SHT31;73001;51.784;4.660;2024-01-15T03:19:08;3.99;81.96
83120;SHT31;73001;51.784;4.660;2024-01-15T03:21:33;4.01;81.88
83120;SHT31;73001;51.784;4.660;2024-01-15T03:23:59;4.05;81.70
83120;SHT31;73001;51.784;4.660;2024-01-15T03:26:24;4.03;81.70
83120;SHT31;73001;51.784;4.660;2024-01-15T03:28:50;4.05;81.10
83120;SHT31;73001;51.784;4.660;2024-01-15T03:31:15;3.98;81.53
83120;SHT31;73001;51.784;4.660;2024-01-15T03:33:41;4.01;81.56
83120;SHT31;73001;51.784;4.660;2024-01-15T03:36:07;4.02;81.61
83120;SHT31;73001;51.784;4.660;2024-01-15T03:38:32;4.06;81.78
83120;SHT31;73001;51.784;4.660;2024-01-15T03:40:58;4.09;81.70
83120;SHT31;73001;51.784;4.660;2024-01-15T03:43:23;4.17;81.37
83120;SHT31;73001;51.784;4.660;2024-01-15T03:45:49;4.10;81.04
83120;SHT31;73001;51.784;4.660;2024-01-15T03:48:14;4.01;81.36
83120;SHT31;73001;51.784;4.660;2024-01-15T03:50:39;4.06;81.31
83120;SHT31;73001;51.784;4.660;2024-01-15T03:53:05;4.06;81.51
83120;SHT31;73001;51.784;4.660;2024-01-15T03:55:30;3.95;81.86
83120;SHT31;73001;51.784;4.660;2024-01-15T03:57:56;3.98;81.73
83120;SHT31;73001;51.784;4.660;2024-01-15T04:00:22;3.98;81.93
83120;SHT31;73001;51.784;4.660;2024-01-15T04:02:47;3.99;82.00
83120;SHT31;73001;51.784;4.660;2024-01-15T04:05:13;3.95;82.02
83120;SHT31;73001;51.784;4.660;2024-01-15T04:07:38;3.96;82.17
83120;SHT31;73001;51.784;4.660;2024-01-15T04:10:04;3.92;82.20
83120;SHT31;73001;51.784;4.660;2024-01-15T04:12:30;3.92;82.29
83120;SHT31;73001;51.784;4.660;2024-01-15T04:14:55;3.98;82.24
83120;SHT31;73001;51.784;4.660;2024-01-15T04:17:21;3.98;82.06
83120;SHT31;73001;51.784;4.660;2024-01-15T04:19:47;3.89;82.20
83120;SHT31;73001;51.784;4.660;2024-01-15T04:22:13;3.92;82.45
83120;SHT31;73001;51.784;4.660;2024-01-15T04:24:39;3.92;82.45
83120;SHT31;73001;51.784;4.660;2024-01-15T04:27:05;3.96;82.60
83120;SHT31;73001;51.784;4.660;2024-01-15T04:29:31;4.03;82.42
83120;SHT31;73001;51.784;4.660;2024-01-15T04:31:56;4.02;82.11
83120;SHT31;73001;51.784;4.660;2024-01-15T04:34:22;4.05;82.12
83120;SHT31;73001;51.784;4.660;2024-01-15T04:36:47;4.07;82.03
83120;SHT31;73001;51.784;4.660;2024-01-15T04:39:16;4.06;81.75
83120;SHT31;73001;51.784;4.660;2024-01-15T04:41:41;4.10;82.21
83120;SHT31;73001;51.784;4.660;2024-01-15T04:44:07;4.09;82.36
83120;SHT31;73001;51.784;4.660;2024-01-15T04:46:32;4.16;82.18
83120;SHT31;73001;51.784;4.660;2024-01-15T04:48:58;4.16;82.33
83120;SHT31;73001;51.784;4.660;2024-01-15T04:51:23;4.23;82.01
83120;SHT31;73001;51.784;4.660;2024-01-15T04:53:49;4.25;81.94
83120;SHT31;73001;51.784;4.660;2024-01-15T04:56:14;4.17;81.47
83120;SHT31;73001;51.784;4.660;2024-01-15T04:58:39;4.05;81.18
83120;SHT31;73001;51.784;4.660;2024-01-15T05:01:05;4.05;80.81
83120;SHT31;73001;51.784;4.660;2024-01-15T05:03:30;3.96;81.59
83120;SHT31;73001;51.784;4.660;2024-01-15T05:05:56;3.91;81.77
83120;SHT31;73001;51.784;4.660;2024-01-15T05:08:21;3.88;81.97
83120;SHT31;73001;51.784;4.660;2024-01-15T05:10:47;3.91;82.26
83120;SHT31;73001;51.784;4.660;2024-01-15T05:13:13;3.92;82.29
83120;SHT31;73001;51.784;4.660;2024-01-15T05:15:38;3.92;82.35
83120;SHT31;73001;51.784;4.660;2024-01-15T05:18:04;3.96;82.29
83120;SHT31;73001;51.784;4.660;2024-01-15T05:20:29;3.99;82.09
83120;SHT31;73001;51.784;4.660;2024-01-15T05:22:55;3.99;81.78
83120;SHT31;73001;51.784;4.660;2024-01-15T05:25:22;3.98;82.27
83120;SHT31;73001;51.784;4.660;2024-01-15T05:27:48;4.03;82.14
83120;SHT31;73001;51.784;4.660;2024-01-15T05:30:14;4.01;82.12
83120;SHT31;73001;51.784;4.660;2024-01-15T05:32:40;3.99;81.93
83120;SHT31;73001;51.784;4.660;2024-01-15T05:35:06;4.01;81.89
83120;SHT31;73001;51.784;4.660;2024-01-15T05:37:31;3.95;81.82
83120;SHT31;73001;51.784;4.660;2024-01-15T05:39:57;3.94;82.01
83120;SHT31;73001;51.784;4.660;2024-01-15T05:42:22;3.95;81.76
83120;SHT31;73001;51.784;4.660;2024-01-15T05:44:48;3.94;82.00
83120;SHT31;73001;51.784;4.660;2024-01-15T05:47:13;3.91;82.19
83120;SHT31;73001;51.784;4.660;2024-01-15T05:49:38;3.91;81.35
83120;SHT31;73001;51.784;4.660;2024-01-15T05:52:04;3.82;82.00
83120;SHT31;73001;51.784;4.660;2024-01-15T05:54:30;3.84;82.28
83120;SHT31;73001;51.784;4.660;2024-01-15T05:56:55;3.84;82.14
83120;SHT31;73001;51.784;4.660;2024-01-15T05:59:20;3.82;81.91
83120;SHT31;73001;51.784;4.660;2024-01-15T06:01:46;3.86;81.69
83120;SHT31;73001;51.784;4.660;2024-01-15T06:04:12;3.78;81.72
83120;SHT31;73001;51.784;4.660;2024-01-15T06:06:37;3.79;81.25
83120;SHT31;73001;51.784;4.660;2024-01-15T06:09:03;3.74;80.98
83120;SHT31;73001;51.784;4.660;2024-01-15T06:11:31;3.64;81.71
83120;SHT31;73001;51.784;4.660;2024-01-15T06:13:57;3.61;82.05
83120;SHT31;73001;51.784;4.660;2024-01-15T06:16:24;3.63;81.73
83120;SHT31;73001;51.784;4.660;2024-01-15T06:18:49;3.60;82.11
83120;SHT31;73001;51.784;4.660;2024-01-15T06:21:15;3.60;82.24
83120;SHT31;73001;51.784;4.660;2024-01-15T06:23:42;3.63;82.12
83120;SHT31;73001;51.784;4.660;2024-01-15T06:26:08;3.67;81.92
83120;SHT31;73001;51.784;4.660;2024-01-15T06:28:33;3.60;82.24
83120;SHT31;73001;51.784;4.660;2024-01-15T06:30:59;3.57;82.18
83120;SHT31;73001;51.784;4.660;2024-01-15T06:33:25;3.54;82.12
83120;SHT31;73001;51.784;4.660;2024-01-15T06:35:50;3.57;82.29
83120;SHT31;73001;51.784;4.660;2024-01-15T06:38:16;3.58;82.25
83120;SHT31;73001;51.784;4.660;2024-01-15T06:40:42;3.58;82.29
83120;SHT31;73001;51.784;4.660;2024-01-15T06:43:14;3.60;82.18
83120;SHT31;73001;51.784;4.660;2024-01-15T06:45:41;3.58;81.80
83120;SHT31;73001;51.784;4.660;2024-01-15T06:48:07;3.55;82.12
83120;SHT31;73001;51.784;4.660;2024-01-15T06:50:38;3.47;82.46
83120;SHT31;73001;51.784;4.660;2024-01-15T06:53:03;3.54;82.71
83120;SHT31;73001;51.784;4.660;2024-01-15T06:55:29;3.58;82.46
83120;SHT31;73001;51.784;4.660;2024-01-15T06:57:55;3.57;82.64
83120;SHT31;73001;51.784;4.660;2024-01-15T07:00:20;3.61;82.48
83120;SHT31;73001;51.784;4.660;2024-01-15T07:02:46;3.63;82.55
83120;SHT31;73001;51.784;4.660;2024-01-15T07:05:11;3.57;82.58
83120;SHT31;73001;51.784;4.660;2024-01-15T07:07:37;3.64;82.39
83120;SHT31;73001;51.784;4.660;2024-01-15T07:10:03;3.63;82.51
83120;SHT31;73001;51.784;4.660;2024-01-15T07:12:29;3.64;82.54
83120;SHT31;73001;51.784;4.660;2024-01-15T07:14:56;3.68;82.48
83120;SHT31;73001;51.784;4.660;2024-01-15T07:17:21;3.71;82.35
83120;SHT31;73001;51.784;4.660;2024-01-15T07:19:47;3.65;82.62
83120;SHT31;73001;51.784;4.660;2024-01-15T07:22:12;3.71;82.41
83120;SHT31;73001;51.784;4.660;2024-01-15T07:24:40;3.70;82.30
83120;SHT31;73001;51.784;4.660;2024-01-15T07:27:06;3.72;82.44
83120;SHT31;73001;51.784;4.660;2024-01-15T07:29:31;3.75;82.17
83120;SHT31;73001;51.784;4.660;2024-01-15T07:31:58;3.67;81.99
83120;SHT31;73001;51.784;4.660;2024-01-15T07:34:24;3.63;82.26
83120;SHT31;73001;51.784;4.660;2024-01-15T07:36:49;3.57;82.15
83120;SHT31;73001;51.784;4.660;2024-01-15T07:39:15;3.58;82.43
83120;SHT31;73001;51.784;4.660;2024-01-15T07:41:40;3.63;82.05
83120;SHT31;73001;51.784;4.660;2024-01-15T07:44:05;3.58;82.35
83120;SHT31;73001;51.784;4.660;2024-01-15T07:46:31;3.58;82.45
83120;SHT31;73001;51.784;4.660;2024-01-15T07:48:57;3.58;82.52
83120;SHT31;73001;51.784;4.660;2024-01-15T07:51:26;3.58;82.35
83120;SHT31;73001;51.784;4.660;2024-01-15T07:53:55;3.65;82.50
83120;SHT31;73001;51.784;4.660;2024-01-15T07:56:21;3.58;82.39
83120;SHT31;73001;51.784;4.660;2024-01-15T07:58:47;3.63;82.50
83120;SHT31;73001;51.784;4.660;2024-01-15T08:01:12;3.63;82.56
83120;SHT31;73001;51.784;4.660;2024-01-15T08:03:38;3.65;82.54
83120;SHT31;73001;51.784;4.660;2024-01-15T08:06:05;3.60;82.38
83120;SHT31;73001;51.784;4.660;2024-01-15T08:08:31;3.57;82.34
83120;SHT31;73001;51.784;4.660;2024-01-15T08:10:56;3.48;82.24
83120;SHT31;73001;51.784;4.660;2024-01-15T08:13:22;3.48;82.60
83120;SHT31;73001;51.784;4.660;2024-01-15T08:15:47;3.47;82.61
83120;SHT31;73001;51.784;4.660;2024-01-15T08:18:13;3.45;82.83
83120;SHT31;73001;51.784;4.660;2024-01-15T08:20:38;3.50;82.72
83120;SHT31;73001;51.784;4.660;2024-01-15T08:23:04;3.53;82.49
83120;SHT31;73001;51.784;4.660;2024-01-15T08:25:30;3.55;82.60
83120;SHT31;73001;51.784;4.660;2024-01-15T08:27:56;3.60;82.62
83120;SHT31;73001;51.784;4.660;2024-01-15T08:30:23;3.67;82.24
83120;SHT31;73001;51.784;4.660;2024-01-15T08:32:56;3.67;82.43
83120;SHT31;73001;51.784;4.660;2024-01-15T08:35:21;3.71;82.49
83120;SHT31;73001;51.784;4.660;2024-01-15T08:37:54;3.70;82.34
83120;SHT31;73001;51.784;4.660;2024-01-15T08:40:20;3.78;82.16
83120;SHT31;73001;51.784;4.660;2024-01-15T08:42:45;3.78;82.25
83120;SHT31;73001;51.784;4.660;2024-01-15T08:45:11;3.75;81.95
83120;SHT31;73001;51.784;4.660;2024-01-15T08:47:36;3.72;82.08
83120;SHT31;73001;51.784;4.660;2024-01-15T08:50:03;3.72;82.00
83120;SHT31;73001;51.784;4.660;2024-01-15T08:52:29;3.74;81.56
83120;SHT31;73001;51.784;4.660;2024-01-15T08:54:58;3.64;81.82
83120;SHT31;73001;51.784;4.660;2024-01-15T08:57:23;3.61;81.81
83120;SHT31;73001;51.784;4.660;2024-01-15T08:59:49;3.60;81.78
83120;SHT31;73001;51.784;4.660;2024-01-15T09:02:14;3.60;82.16
83120;SHT31;73001;51.784;4.660;2024-01-15T09:04:40;3.63;82.18
83120;SHT31;73001;51.784;4.660;2024-01-15T09:07:07;3.64;81.63
83120;SHT31;73001;51.784;4.660;2024-01-15T09:09:32;3.65;81.94
83120;SHT31;73001;51.784;4.660;2024-01-15T09:11:59;3.74;81.93
83120;SHT31;73001;51.784;4.660;2024-01-15T09:14:25;3.75;81.84
83120;SHT31;73001;51.784;4.660;2024-01-15T09:16:53;3.82;81.85
83120;SHT31;73001;51.784;4.660;2024-01-15T09:19:19;3.82;81.73
83120;SHT31;73001;51.784;4.660;2024-01-15T09:21:45;3.89;81.80
83120;SHT31;73001;51.784;4.660;2024-01-15T09:24:11;4.06;81.90
83120;SHT31;73001;51.784;4.660;2024-01-15T09:26:36;4.17;81.99
83120;SHT31;73001;51.784;4.660;2024-01-15T09:29:02;4.28;80.77
83120;SHT31;73001;51.784;4.660;2024-01-15T09:31:28;4.42;80.52
83120;SHT31;73001;51.784;4.660;2024-01-15T09:33:54;4.53;80.18
83120;SHT31;73001;51.784;4.660;2024-01-15T09:36:22;4.53;80.21
83120;SHT31;73001;51.784;4.660;2024-01-15T09:38:48;4.50;80.62
83120;SHT31;73001;51.784;4.660;2024-01-15T09:41:14;4.52;80.56
83120;SHT31;73001;51.784;4.660;2024-01-15T09:43:40;4.54;80.07
83120;SHT31;73001;51.784;4.660;2024-01-15T09:46:06;4.52;80.38
83120;SHT31;73001;51.784;4.660;2024-01-15T09:48:32;4.67;80.36
83120;SHT31;73001;51.784;4.660;2024-01-15T09:51:01;4.88;80.59
83120;SHT31;73001;51.784;4.660;2024-01-15T09:53:27;4.89;80.41
83120;SHT31;73001;51.784;4.660;2024-01-15T09:55:53;5.01;80.73
83120;SHT31;73001;51.784;4.660;2024-01-15T09:58:19;5.29;80.68
83120;SHT31;73001;51.784;4.660;2024-01-15T10:00:47;5.46;80.55
83120;SHT31;73001;51.784;4.660;2024-01-15T10:03:15;5.53;79.61
83120;SHT31;73001;51.784;4.660;2024-01-15T10:05:41;5.49;78.49
83120;SHT31;73001;51.784;4.660;2024-01-15T10:08:07;5.53;78.65
83120;SHT31;73001;51.784;4.660;2024-01-15T10:10:32;5.50;77.92
83120;SHT31;73001;51.784;4.660;2024-01-15T10:12:58;5.50;78.25
83120;SHT31;73001;51.784;4.660;2024-01-15T10:15:28;5.52;77.48
83120;SHT31;73001;51.784;4.660;2024-01-15T10:17:54;5.66;77.48
83120;SHT31;73001;51.784;4.660;2024-01-15T10:20:20;5.86;76.76
83120;SHT31;73001;51.784;4.660;2024-01-15T10:22:47;6.14;76.83
83120;SHT31;73001;51.784;4.660;2024-01-15T10:25:13;7.27;75.51
83120;SHT31;73001;51.784;4.660;2024-01-15T10:27:40;7.24;75.32
83120;SHT31;73001;51.784;4.660;2024-01-15T10:30:10;7.09;75.50
83120;SHT31;73001;51.784;4.660;2024-01-15T10:32:37;6.83;74.91
83120;SHT31;73001;51.784;4.660;2024-01-15T10:35:03;6.55;74.22
83120;SHT31;73001;51.784;4.660;2024-01-15T10:37:33;6.13;74.46
83120;SHT31;73001;51.784;4.660;2024-01-15T10:40:01;5.70;75.70
83120;SHT31;73001;51.784;4.660;2024-01-15T10:42:27;5.49;76.92
83120;SHT31;73001;51.784;4.660;2024-01-15T10:44:53;5.25;77.10
83120;SHT31;73001;51.784;4.660;2024-01-15T10:47:19;5.08;77.96
83120;SHT31;73001;51.784;4.660;2024-01-15T10:49:45;4.99;78.48
83120;SHT31;73001;51.784;4.660;2024-01-15T10:52:11;4.97;79.06
83120;SHT31;73001;51.784;4.660;2024-01-15T10:54:37;4.92;79.29
83120;SHT31;73001;51.784;4.660;2024-01-15T10:57:03;4.91;79.37
83120;SHT31;73001;51.784;4.660;2024-01-15T10:59:29;4.92;79.65
83120;SHT31;73001;51.784;4.660;2024-01-15T11:01:55;4.91;79.42
83120;SHT31;73001;51.784;4.660;2024-01-15T11:04:21;4.94;80.05
83120;SHT31;73001;51.784;4.660;2024-01-15T11:06:51;5.04;79.70
83120;SHT31;73001;51.784;4.660;2024-01-15T11:09:18;5.02;79.47
83120;SHT31;73001;51.784;4.660;2024-01-15T11:11:45;4.97;79.36
83120;SHT31;73001;51.784;4.660;2024-01-15T11:14:34;4.97;79.45
83120;SHT31;73001;51.784;4.660;2024-01-15T11:16:59;4.92;79.60
83120;SHT31;73001;51.784;4.660;2024-01-15T11:19:25;4.92;79.65
83120;SHT31;73001;51.784;4.660;2024-01-15T11:21:51;4.84;79.57
83120;SHT31;73001;51.784;4.660;2024-01-15T11:24:35;4.84;79.61
83120;SHT31;73001;51.784;4.660;2024-01-15T11:27:05;4.89;79.68
83120;SHT31;73001;51.784;4.660;2024-01-15T11:29:35;4.94;79.49
83120;SHT31;73001;51.784;4.660;2024-01-15T11:32:08;5.05;79.59
83120;SHT31;73001;51.784;4.660;2024-01-15T11:37:18;5.08;79.22
83120;SHT31;73001;51.784;4.660;2024-01-15T11:39:44;5.08;79.30
83120;SHT31;73001;51.784;4.660;2024-01-15T11:42:14;5.04;78.93
83120;SHT31;73001;51.784;4.660;2024-01-15T11:44:41;4.97;78.86
83120;SHT31;73001;51.784;4.660;2024-01-15T11:47:09;4.98;79.04
83120;SHT31;73001;51.784;4.660;2024-01-15T11:52:25;4.99;78.44
83120;SHT31;73001;51.784;4.660;2024-01-15T11:56:02;5.25;78.62
83120;SHT31;73001;51.784;4.660;2024-01-15T11:58:00;5.45;78.70
83120;SHT31;73001;51.784;4.660;2024-01-15T12:00:26;5.63;79.03
83120;SHT31;73001;51.784;4.660;2024-01-15T12:02:52;5.89;78.98
83120;SHT31;73001;51.784;4.660;2024-01-15T12:05:19;5.93;78.20
83120;SHT31;73001;51.784;4.660;2024-01-15T12:07:47;5.94;78.55
83120;SHT31;73001;51.784;4.660;2024-01-15T12:10:21;5.90;76.90
83120;SHT31;73001;51.784;4.660;2024-01-15T12:13:06;5.79;76.59
83120;SHT31;73001;51.784;4.660;2024-01-15T12:15:35;5.58;76.53
83120;SHT31;73001;51.784;4.660;2024-01-15T12:18:02;5.55;77.53
83120;SHT31;73001;51.784;4.660;2024-01-15T12:20:29;5.49;77.01
83120;SHT31;73001;51.784;4.660;2024-01-15T12:22:55;5.46;76.55
83120;SHT31;73001;51.784;4.660;2024-01-15T12:25:22;5.38;77.05
83120;SHT31;73001;51.784;4.660;2024-01-15T12:27:48;5.32;76.63
83120;SHT31;73001;51.784;4.660;2024-01-15T12:30:14;5.19;77.01
83120;SHT31;73001;51.784;4.660;2024-01-15T12:32:41;5.18;76.89
83120;SHT31;73001;51.784;4.660;2024-01-15T12:35:10;5.05;77.05
83120;SHT31;73001;51.784;4.660;2024-01-15T12:37:38;4.97;77.98
83120;SHT31;73001;51.784;4.660;2024-01-15T12:40:05;4.95;78.30
83120;SHT31;73001;51.784;4.660;2024-01-15T12:42:41;4.94;78.32
83120;SHT31;73001;51.784;4.660;2024-01-15T12:45:08;4.89;78.39
83120;SHT31;73001;51.784;4.660;2024-01-15T12:47:41;4.83;78.61
83120;SHT31;73001;51.784;4.660;2024-01-15T12:50:11;4.81;78.92
83120;SHT31;73001;51.784;4.660;2024-01-15T12:52:41;4.83;78.91
83120;SHT31;73001;51.784;4.660;2024-01-15T12:55:11;4.77;79.58
83120;SHT31;73001;51.784;4.660;2024-01-15T12:57:37;4.83;79.31
83120;SHT31;73001;51.784;4.660;2024-01-15T13:00:05;4.92;79.70
83120;SHT31;73001;51.784;4.660;2024-01-15T13:02:38;4.94;79.88
83120;SHT31;73001;51.784;4.660;2024-01-15T13:05:06;4.99;79.74
83120;SHT31;73001;51.784;4.660;2024-01-15T13:07:35;5.05;80.10
83120;SHT31;73001;51.784;4.660;2024-01-15T13:10:01;5.14;79.07
83120;SHT31;73001;51.784;4.660;2024-01-15T13:12:26;5.17;79.44
83120;SHT31;73001;51.784;4.660;2024-01-15T13:14:52;5.31;78.59
83120;SHT31;73001;51.784;4.660;2024-01-15T13:17:20;5.39;79.39
83120;SHT31;73001;51.784;4.660;2024-01-15T13:19:46;5.42;79.21
83120;SHT31;73001;51.784;4.660;2024-01-15T13:22:32;5.50;78.71
83120;SHT31;73001;51.784;4.660;2024-01-15T13:24:58;5.52;78.78
83120;SHT31;73001;51.784;4.660;2024-01-15T13:27:27;5.52;79.10
83120;SHT31;73001;51.784;4.660;2024-01-15T13:30:01;5.56;78.17
83120;SHT31;73001;51.784;4.660;2024-01-15T13:32:28;5.63;78.84
83120;SHT31;73001;51.784;4.660;2024-01-15T13:34:55;5.79;78.05
83120;SHT31;73001;51.784;4.660;2024-01-15T13:37:21;5.86;77.52
83120;SHT31;73001;51.784;4.660;2024-01-15T13:39:53;5.81;75.95
83120;SHT31;73001;51.784;4.660;2024-01-15T13:42:18;5.74;75.75
83120;SHT31;73001;51.784;4.660;2024-01-15T13:44:45;5.73;74.42
83120;SHT31;73001;51.784;4.660;2024-01-15T13:47:11;5.62;74.29
83120;SHT31;73001;51.784;4.660;2024-01-15T13:49:40;5.49;74.69
83120;SHT31;73001;51.784;4.660;2024-01-15T13:52:09;5.36;75.78
83120;SHT31;73001;51.784;4.660;2024-01-15T13:54:34;5.25;75.93
83120;SHT31;73001;51.784;4.660;2024-01-15T13:57:00;5.19;75.30
83120;SHT31;73001;51.784;4.660;2024-01-15T13:59:26;5.08;76.09
83120;SHT31;73001;51.784;4.660;2024-01-15T14:01:52;4.94;76.40
83120;SHT31;73001;51.784;4.660;2024-01-15T14:04:18;4.85;76.80
83120;SHT31;73001;51.784;4.660;2024-01-15T14:06:46;4.77;77.51
83120;SHT31;73001;51.784;4.660;2024-01-15T14:09:14;4.66;78.52
83120;SHT31;73001;51.784;4.660;2024-01-15T14:11:40;4.67;79.00
83120;SHT31;73001;51.784;4.660;2024-01-15T14:14:06;4.68;78.77
83120;SHT31;73001;51.784;4.660;2024-01-15T14:16:34;4.73;78.49
83120;SHT31;73001;51.784;4.660;2024-01-15T14:19:02;4.73;78.83
83120;SHT31;73001;51.784;4.660;2024-01-15T14:21:31;4.73;78.78
83120;SHT31;73001;51.784;4.660;2024-01-15T14:24:02;4.76;79.26
83120;SHT31;73001;51.784;4.660;2024-01-15T14:26:31;4.83;79.31
83120;SHT31;73001;51.784;4.660;2024-01-15T14:29:02;4.74;78.92
83120;SHT31;73001;51.784;4.660;2024-01-15T14:31:31;4.73;79.01
83120;SHT31;73001;51.784;4.660;2024-01-15T14:33:58;4.73;78.47
83120;SHT31;73001;51.784;4.660;2024-01-15T14:36:27;4.67;79.02
83120;SHT31;73001;51.784;4.660;2024-01-15T14:38:55;4.58;78.65
83120;SHT31;73001;51.784;4.660;2024-01-15T14:41:21;4.52;79.12
83120;SHT31;73001;51.784;4.660;2024-01-15T14:43:49;4.46;78.87
83120;SHT31;73001;51.784;4.660;2024-01-15T14:46:17;4.43;78.71
83120;SHT31;73001;51.784;4.660;2024-01-15T14:48:43;4.33;78.91
83120;SHT31;73001;51.784;4.660;2024-01-15T14:51:10;4.26;78.77
83120;SHT31;73001;51.784;4.660;2024-01-15T14:53:38;4.15;79.17
83120;SHT31;73001;51.784;4.660;2024-01-15T14:56:07;4.16;79.37
83120;SHT31;73001;51.784;4.660;2024-01-15T14:58:33;4.16;79.33
83120;SHT31;73001;51.784;4.660;2024-01-15T15:00:58;4.13;77.98
83120;SHT31;73001;51.784;4.660;2024-01-15T15:03:24;4.17;77.36
83120;SHT31;73001;51.784;4.660;2024-01-15T15:05:53;4.19;76.83
83120;SHT31;73001;51.784;4.660;2024-01-15T15:08:18;4.17;76.10
83120;SHT31;73001;51.784;4.660;2024-01-15T15:10:44;4.16;75.64
83120;SHT31;73001;51.784;4.660;2024-01-15T15:13:10;4.09;76.25
83120;SHT31;73001;51.784;4.660;2024-01-15T15:15:38;4.12;76.23
83120;SHT31;73001;51.784;4.660;2024-01-15T15:18:04;4.06;76.03
83120;SHT31;73001;51.784;4.660;2024-01-15T15:20:29;4.02;75.72
83120;SHT31;73001;51.784;4.660;2024-01-15T15:22:55;4.01;76.01
83120;SHT31;73001;51.784;4.660;2024-01-15T15:25:21;4.02;75.63
83120;SHT31;73001;51.784;4.660;2024-01-15T15:27:48;3.99;75.44
83120;SHT31;73001;51.784;4.660;2024-01-15T15:30:13;4.01;75.76
83120;SHT31;73001;51.784;4.660;2024-01-15T15:32:39;4.06;75.99
83120;SHT31;73001;51.784;4.660;2024-01-15T15:35:04;4.12;76.33
83120;SHT31;73001;51.784;4.660;2024-01-15T15:37:31;4.13;76.05
83120;SHT31;73001;51.784;4.660;2024-01-15T15:39:57;4.23;75.50
83120;SHT31;73001;51.784;4.660;2024-01-15T15:42:23;4.28;75.59
83120;SHT31;73001;51.784;4.660;2024-01-15T15:44:49;4.29;75.79
83120;SHT31;73001;51.784;4.660;2024-01-15T15:47:20;4.30;75.99